createdAt,value
2019-06-26T00:01:09.591Z,77.50
2019-06-26T00:03:39.420Z,77.40
2019-06-26T00:06:10.643Z,77.40
2019-06-26T00:08:40.730Z,77.50
2019-06-26T00:11:10.904Z,77.60
2019-06-26T00:13:40.731Z,77.60
2019-06-26T00:16:10.600Z,77.30
2019-06-26T00:18:40.426Z,77.50
2019-06-26T00:21:10.345Z,77.60
2019-06-26T00:23:40.212Z,77.80
2019-06-26T00:26:10.123Z,78.00
2019-06-26T00:28:39.986Z,78.00
2019-06-26T00:31:09.869Z,77.90
2019-06-26T00:33:39.751Z,78.00
2019-06-26T00:36:09.646Z,78.30
2019-06-26T00:38:40.259Z,78.20
2019-06-26T00:41:10.267Z,78.00
2019-06-26T00:43:42.645Z,78.30
2019-06-26T00:46:11.927Z,78.30
2019-06-26T00:48:41.763Z,78.00
2019-06-26T00:51:12.730Z,78.40
2019-06-26T00:53:42.578Z,78.60
2019-06-26T00:56:12.756Z,78.60
2019-06-26T00:58:42.585Z,78.60
2019-06-26T01:01:12.632Z,78.40
2019-06-26T01:03:42.459Z,78.40
2019-06-26T01:06:14.238Z,78.10
2019-06-26T01:08:44.107Z,78.50
2019-06-26T01:11:13.951Z,78.70
2019-06-26T01:13:57.340Z,78.90
2019-06-26T01:16:15.707Z,78.70
2019-06-26T01:18:46.087Z,78.50
2019-06-26T01:21:15.943Z,78.70
2019-06-26T01:23:46.216Z,78.60
2019-06-26T01:26:16.067Z,78.80
2019-06-26T01:28:45.911Z,79.00
2019-06-26T01:31:15.777Z,79.20
2019-06-26T01:33:45.646Z,79.10
2019-06-26T01:36:15.483Z,78.70
2019-06-26T01:38:45.341Z,78.60
2019-06-26T01:41:15.521Z,78.30
2019-06-26T01:43:45.619Z,78.00
2019-06-26T01:46:15.760Z,77.90
2019-06-26T01:48:45.642Z,78.00
2019-06-26T01:51:15.471Z,77.90
2019-06-26T01:53:45.394Z,78.20
2019-06-26T01:56:15.293Z,78.50
2019-06-26T01:58:45.154Z,78.60
2019-06-26T02:01:15.267Z,78.70
2019-06-26T02:03:45.121Z,78.90
2019-06-26T02:06:15.206Z,78.90
2019-06-26T02:08:45.071Z,79.10
2019-06-26T02:11:15.223Z,79.50
2019-06-26T02:13:45.406Z,79.40
2019-06-26T02:16:15.223Z,79.50
2019-06-26T02:18:46.987Z,79.90
2019-06-26T02:21:16.842Z,79.80
2019-06-26T02:23:46.957Z,79.90
2019-06-26T02:26:17.172Z,79.70
2019-06-26T02:28:47.040Z,79.70
2019-06-26T02:31:17.137Z,80.10
2019-06-26T02:33:47.425Z,80.30
2019-06-26T02:36:17.312Z,80.40
2019-06-26T02:38:47.152Z,80.40
2019-06-26T02:41:17.242Z,80.20
2019-06-26T02:43:47.344Z,80.40
2019-06-26T02:46:17.272Z,80.50
2019-06-26T02:48:47.117Z,80.70
2019-06-26T02:51:16.966Z,80.70
2019-06-26T02:53:46.810Z,80.60
2019-06-26T02:56:16.652Z,80.60
2019-06-26T02:58:46.572Z,80.60
2019-06-26T03:01:16.422Z,80.70
2019-06-26T03:03:46.564Z,80.70
2019-06-26T03:06:16.408Z,80.90
2019-06-26T03:08:46.284Z,80.60
2019-06-26T03:11:16.130Z,80.40
2019-06-26T03:13:47.873Z,80.50
2019-06-26T03:16:17.779Z,80.50
2019-06-26T03:18:48.592Z,80.30
2019-06-26T03:21:18.420Z,80.10
2019-06-26T03:23:48.266Z,79.80
2019-06-26T03:26:18.119Z,79.50
2019-06-26T03:28:47.973Z,79.40
2019-06-26T03:31:17.824Z,79.00
2019-06-26T03:33:47.684Z,78.70
2019-06-26T03:36:17.531Z,78.50
2019-06-26T03:38:47.421Z,78.20
2019-06-26T03:41:17.317Z,77.80
2019-06-26T03:43:47.508Z,77.70
2019-06-26T03:46:17.366Z,77.40
2019-06-26T03:48:47.634Z,77.10
2019-06-26T03:51:17.519Z,76.70
2019-06-26T03:53:47.345Z,75.90
2019-06-26T03:56:17.185Z,75.80
2019-06-26T03:58:47.036Z,75.70
2019-06-26T04:01:17.307Z,75.40
2019-06-26T04:03:47.129Z,75.00
2019-06-26T04:06:16.963Z,74.20
2019-06-26T04:08:47.845Z,73.90
2019-06-26T04:11:17.690Z,73.10
2019-06-26T04:13:47.511Z,73.10
2019-06-26T04:16:17.354Z,73.10
2019-06-26T04:18:47.226Z,72.80
2019-06-26T04:21:17.066Z,72.90
2019-06-26T04:23:46.919Z,72.80
2019-06-26T04:26:16.783Z,73.20
2019-06-26T04:28:46.633Z,72.50
2019-06-26T04:31:16.494Z,72.00
2019-06-26T04:33:46.813Z,71.80
2019-06-26T04:36:18.049Z,71.50
2019-06-26T04:38:48.218Z,71.50
2019-06-26T04:41:18.200Z,71.30
2019-06-26T04:43:48.095Z,71.10
2019-06-26T04:46:18.514Z,70.80
2019-06-26T04:48:48.512Z,70.80
2019-06-26T04:51:18.635Z,70.30
2019-06-26T04:53:48.567Z,70.30
2019-06-26T04:56:18.468Z,69.90
2019-06-26T04:58:50.073Z,69.80
2019-06-26T05:01:20.316Z,69.80
2019-06-26T05:03:50.230Z,69.80
2019-06-26T05:06:20.102Z,69.70
2019-06-26T05:18:01.912Z,69.30
2019-06-26T05:20:31.887Z,68.70
2019-06-26T05:23:03.747Z,68.30
2019-06-26T05:25:33.581Z,67.80
2019-06-26T05:28:03.658Z,67.40
2019-06-26T05:30:33.571Z,67.50
2019-06-26T05:33:03.543Z,67.40
2019-06-26T05:35:35.279Z,67.10
2019-06-26T05:38:05.912Z,66.40
2019-06-26T05:40:35.851Z,66.10
2019-06-26T05:43:05.887Z,65.30
2019-06-26T05:45:36.175Z,65.00
2019-06-26T05:48:06.027Z,64.40
2019-06-26T05:50:35.931Z,63.50
2019-06-26T05:53:05.914Z,62.80
2019-06-26T05:55:35.896Z,61.40
2019-06-26T05:58:06.599Z,60.90
2019-06-26T06:00:36.570Z,60.00
2019-06-26T06:03:06.673Z,60.00
2019-06-26T06:05:37.547Z,59.90
2019-06-26T06:08:07.449Z,59.50
2019-06-26T06:10:37.795Z,59.20
2019-06-26T06:13:07.642Z,58.70
2019-06-26T06:15:37.906Z,58.70
2019-06-26T06:18:07.805Z,58.40
2019-06-26T06:20:40.703Z,58.30
2019-06-26T06:23:10.555Z,57.80
2019-06-26T06:25:42.430Z,57.90
2019-06-26T06:28:12.325Z,57.70
2019-06-26T06:30:42.174Z,57.90
2019-06-26T06:33:11.982Z,58.00
2019-06-26T06:35:41.853Z,57.50
2019-06-26T06:38:12.662Z,57.50
2019-06-26T06:40:42.563Z,57.30
2019-06-26T06:43:13.418Z,56.90
2019-06-26T06:45:43.226Z,57.10
2019-06-26T06:48:13.119Z,55.70
2019-06-26T06:50:42.996Z,55.60
2019-06-26T06:53:12.959Z,55.60
2019-06-26T06:55:42.926Z,55.40
2019-06-26T06:58:13.075Z,56.00
2019-06-26T07:00:42.958Z,56.20
2019-06-26T07:03:18.850Z,56.30
2019-06-26T07:05:50.272Z,56.40
2019-06-26T07:08:20.560Z,57.00
2019-06-26T07:10:50.407Z,57.20
2019-06-26T07:13:20.294Z,57.00
2019-06-26T07:15:50.991Z,57.00
2019-06-26T07:18:21.100Z,57.30
2019-06-26T07:20:51.122Z,57.20
2019-06-26T07:23:21.151Z,57.20
2019-06-26T07:25:51.187Z,56.90
2019-06-26T07:28:22.993Z,57.40
2019-06-26T07:30:53.046Z,57.00
2019-06-26T07:33:23.159Z,56.70
2019-06-26T07:35:53.077Z,57.00
2019-06-26T07:38:24.057Z,56.20
2019-06-26T07:40:54.209Z,56.20
2019-06-26T07:43:24.061Z,56.50
2019-06-26T08:17:02.690Z,53.60
2019-06-26T08:31:47.191Z,55.00
2019-06-26T08:34:17.018Z,54.20
2019-06-26T08:36:47.298Z,54.70
2019-06-26T08:39:17.270Z,54.20
2019-06-26T08:41:47.156Z,53.80
2019-06-26T08:44:17.290Z,53.40
2019-06-26T08:46:47.181Z,53.80
2019-06-26T08:49:25.469Z,54.20
2019-06-26T08:51:48.586Z,53.90
2019-06-26T08:54:18.424Z,53.40
2019-06-26T08:56:48.549Z,53.80
2019-06-26T08:59:18.384Z,54.20
2019-06-26T09:01:48.611Z,53.60
2019-06-26T09:04:18.447Z,54.00
2019-06-26T09:06:48.281Z,54.30
2019-06-26T09:09:18.592Z,54.60
2019-06-26T09:11:48.595Z,55.00
2019-06-26T09:14:18.504Z,55.20
2019-06-26T09:16:48.334Z,53.50
2019-06-26T09:19:18.615Z,53.50
2019-06-26T09:21:48.779Z,53.60
2019-06-26T09:24:18.904Z,54.20
2019-06-26T09:26:49.087Z,53.80
2019-06-26T09:29:19.107Z,54.10
2019-06-26T09:31:48.994Z,54.60
2019-06-26T09:34:19.118Z,55.30
2019-06-26T09:36:49.262Z,54.10
2019-06-26T09:39:19.100Z,53.60
2019-06-26T09:41:48.971Z,54.10
2019-06-26T09:44:18.857Z,54.30
2019-06-26T09:46:49.035Z,54.60
2019-06-26T09:49:20.008Z,54.80
2019-06-26T09:51:49.899Z,54.90
2019-06-26T09:54:19.742Z,54.70
2019-06-26T09:56:49.560Z,54.90
2019-06-26T09:59:19.487Z,54.50
2019-06-26T10:01:49.470Z,54.50
2019-06-26T10:04:20.434Z,55.10
2019-06-26T10:06:50.307Z,55.50
2019-06-26T10:09:20.196Z,55.70
2019-06-26T10:11:51.187Z,56.20
2019-06-26T10:14:21.163Z,56.30
2019-06-26T10:16:51.034Z,56.00
2019-06-26T10:19:21.211Z,55.60
2019-06-26T10:21:51.306Z,55.90
2019-06-26T10:24:23.967Z,55.90
2019-06-26T10:26:54.120Z,55.70
2019-06-26T10:29:24.032Z,55.10
2019-06-26T10:31:53.990Z,55.10
2019-06-26T10:34:23.872Z,53.60
2019-06-26T10:36:53.887Z,53.60
2019-06-26T10:39:23.807Z,54.70
2019-06-26T10:41:55.099Z,54.40
2019-06-26T10:44:25.314Z,55.10
2019-06-26T10:46:55.142Z,54.90
2019-06-26T10:49:27.485Z,54.90
2019-06-26T10:51:56.511Z,55.50
2019-06-26T10:54:26.710Z,55.40
2019-06-26T10:56:56.544Z,55.40
2019-06-26T10:59:26.794Z,54.50
2019-06-26T11:01:56.811Z,54.00
2019-06-26T11:04:26.765Z,54.00
2019-06-26T11:06:57.691Z,54.30
2019-06-26T11:09:27.623Z,54.60
2019-06-26T11:11:57.956Z,54.00
2019-06-26T11:45:11.789Z,53.20
2019-06-26T11:47:45.398Z,54.10
2019-06-26T11:50:14.508Z,54.40
2019-06-26T11:52:44.387Z,54.60
2019-06-26T11:55:15.086Z,53.20
2019-06-26T11:57:45.251Z,53.30
2019-06-26T12:00:23.321Z,52.20
2019-06-26T12:02:53.227Z,52.70
2019-06-26T12:05:23.843Z,53.10
2019-06-26T12:07:53.728Z,52.50
2019-06-26T12:10:23.696Z,53.20
2019-06-26T12:12:53.603Z,53.50
2019-06-26T12:15:24.397Z,53.00
2019-06-26T12:17:54.291Z,53.70
2019-06-26T12:20:24.197Z,51.70
2019-06-26T12:22:54.035Z,51.70
2019-06-26T12:25:24.247Z,52.40
2019-06-26T12:27:54.458Z,53.30
2019-06-26T12:30:24.543Z,53.70
2019-06-26T12:33:02.939Z,53.70
2019-06-26T12:35:25.962Z,55.20
2019-06-26T12:37:55.808Z,55.60
2019-06-26T12:40:25.717Z,56.70
2019-06-26T12:42:55.920Z,57.70
2019-06-26T12:46:13.499Z,57.90
2019-06-26T12:48:43.494Z,57.60
2019-06-26T12:51:13.505Z,58.50
2019-06-26T12:53:43.666Z,58.80
2019-06-26T12:56:13.562Z,58.30
2019-06-26T12:58:43.401Z,59.10
2019-06-26T13:01:13.242Z,59.90
2019-06-26T13:03:43.532Z,58.80
2019-06-26T13:06:13.641Z,59.30
2019-06-26T13:08:43.460Z,59.30
2019-06-26T13:11:14.427Z,59.10
2019-06-26T13:14:01.900Z,60.00
2019-06-26T13:16:22.350Z,59.90
2019-06-26T13:18:52.209Z,60.20
2019-06-26T13:21:22.089Z,61.30
2019-06-26T13:23:52.003Z,61.30
2019-06-26T13:26:21.882Z,61.90
2019-06-26T13:28:52.008Z,62.10
2019-06-26T13:31:23.089Z,63.40
2019-06-26T13:33:52.961Z,65.00
2019-06-26T13:36:23.071Z,63.20
2019-06-26T13:38:53.044Z,63.20
2019-06-26T13:41:22.922Z,62.30
2019-06-26T13:43:52.820Z,62.20
2019-06-26T13:46:22.842Z,62.90
2019-06-26T13:48:52.768Z,63.20
2019-06-26T13:51:22.898Z,63.00
2019-06-26T13:53:52.722Z,62.70
2019-06-26T13:56:23.388Z,62.00
2019-06-26T13:58:53.265Z,62.30
2019-06-26T14:01:23.397Z,62.50
2019-06-26T14:03:55.299Z,62.10
2019-06-26T14:06:25.206Z,62.10
2019-06-26T14:08:55.022Z,62.70
2019-06-26T14:11:24.834Z,62.80
2019-06-26T14:13:54.697Z,62.50
2019-06-26T14:16:24.510Z,61.60
2019-06-26T14:18:54.334Z,61.40
2019-06-26T14:21:26.441Z,61.80
2019-06-26T14:23:56.343Z,60.60
2019-06-26T14:26:26.176Z,62.10
2019-06-26T14:43:20.087Z,58.20
2019-06-26T14:45:50.216Z,58.10
2019-06-26T14:48:20.230Z,58.20
2019-06-26T14:50:50.057Z,58.80
2019-06-26T14:53:20.194Z,57.80
2019-06-26T14:55:50.017Z,57.40
2019-06-26T14:58:19.942Z,57.60
2019-06-26T15:00:50.024Z,56.90
2019-06-26T15:03:19.868Z,57.00
2019-06-26T15:05:49.956Z,56.90
2019-06-26T15:08:20.241Z,56.60
2019-06-26T15:10:50.104Z,56.70
2019-06-26T15:13:20.139Z,56.70
2019-06-26T15:27:45.615Z,57.60
2019-06-26T15:30:16.355Z,57.80
2019-06-26T15:32:47.917Z,56.10
2019-06-26T15:35:17.937Z,55.30
2019-06-26T15:37:48.156Z,54.50
2019-06-26T15:40:18.726Z,52.00
2019-06-26T15:42:49.209Z,52.20
2019-06-26T15:45:20.848Z,49.00
2019-06-26T15:47:51.246Z,46.60
2019-06-26T15:50:21.373Z,45.70
2019-06-26T15:52:54.089Z,46.60
2019-06-26T16:41:24.651Z,45.80
2019-06-26T16:43:54.516Z,44.40
2019-06-26T16:46:26.231Z,45.30
2019-06-26T16:48:56.302Z,45.80
2019-06-26T16:51:26.140Z,43.40
2019-06-26T17:11:29.964Z,47.00
2019-06-26T17:13:59.866Z,48.00
2019-06-26T17:16:29.752Z,45.80
2019-06-26T17:18:59.574Z,44.60
2019-06-26T17:21:29.429Z,43.70
2019-06-26T17:23:59.288Z,45.10
2019-06-26T17:26:29.115Z,44.60
2019-06-26T17:29:00.913Z,46.10
2019-06-26T17:31:33.485Z,45.40
2019-06-26T17:34:03.698Z,46.50
2019-06-26T17:36:33.563Z,46.30
2019-06-26T17:39:07.009Z,45.50
